createdAt,value
2019-05-11T00:00:02.681Z,27.20
2019-05-11T00:01:02.686Z,27.00
2019-05-11T00:02:02.662Z,27.20
2019-05-11T00:03:02.646Z,26.90
2019-05-11T00:04:02.658Z,27.60
2019-05-11T00:05:02.636Z,27.20
2019-05-11T00:06:02.616Z,27.70
2019-05-11T00:07:02.606Z,27.90
2019-05-11T00:08:02.643Z,27.40
2019-05-11T00:09:02.595Z,28.10
2019-05-11T00:10:02.575Z,27.50
2019-05-11T00:11:02.574Z,27.80
2019-05-11T00:12:02.563Z,27.90
2019-05-11T00:13:02.553Z,28.40
2019-05-11T00:14:02.577Z,27.50
2019-05-11T00:15:02.520Z,28.70
2019-05-11T00:16:02.513Z,28.80
2019-05-11T00:17:02.540Z,28.00
2019-05-11T00:18:02.517Z,28.30
2019-05-11T00:19:02.474Z,28.90
2019-05-11T00:20:02.899Z,28.20
2019-05-11T00:21:02.450Z,28.60
2019-05-11T00:22:02.434Z,29.20
2019-05-11T00:23:02.425Z,29.00
2019-05-11T00:24:02.423Z,28.80
2019-05-11T00:25:02.409Z,29.20
2019-05-11T00:26:02.391Z,29.20
2019-05-11T00:27:02.396Z,28.80
2019-05-11T00:28:02.400Z,28.50
2019-05-11T00:29:02.364Z,28.50
2019-05-11T00:30:02.362Z,28.00
2019-05-11T00:31:02.343Z,28.00
2019-05-11T00:32:02.338Z,28.70
2019-05-11T00:33:02.315Z,28.80
2019-05-11T00:34:02.300Z,28.90
2019-05-11T00:35:02.308Z,28.90
2019-05-11T00:36:02.282Z,28.30
2019-05-11T00:37:02.288Z,28.20
2019-05-11T00:38:02.274Z,28.10
2019-05-11T00:39:02.253Z,28.60
2019-05-11T00:40:13.881Z,28.40
2019-05-11T00:41:03.244Z,27.90
2019-05-11T00:42:02.213Z,27.90
2019-05-11T00:43:02.203Z,28.50
2019-05-11T00:44:02.197Z,29.00
2019-05-11T00:45:02.179Z,28.40
2019-05-11T00:46:02.192Z,28.90
2019-05-11T00:47:02.174Z,28.40
2019-05-11T00:48:02.153Z,28.50
2019-05-11T00:49:02.141Z,28.80
2019-05-11T00:50:02.124Z,28.50
2019-05-11T00:51:02.112Z,28.30
2019-05-11T00:52:02.152Z,28.50
2019-05-11T00:53:02.100Z,28.60
2019-05-11T00:54:02.079Z,28.90
2019-05-11T00:55:02.070Z,28.40
2019-05-11T00:56:02.067Z,29.60
2019-05-11T00:57:02.069Z,28.70
2019-05-11T00:58:02.042Z,28.70
2019-05-11T00:59:02.027Z,28.90
2019-05-11T01:00:02.022Z,29.00
2019-05-11T01:01:02.019Z,29.00
2019-05-11T01:02:01.999Z,29.20
2019-05-11T01:03:01.989Z,28.70
2019-05-11T01:04:02.027Z,29.30
2019-05-11T01:05:01.960Z,28.70
2019-05-11T01:06:01.964Z,28.20
2019-05-11T01:07:01.938Z,28.20
2019-05-11T01:08:01.948Z,27.50
2019-05-11T01:09:01.925Z,27.80
2019-05-11T01:10:01.917Z,27.80
2019-05-11T01:11:01.892Z,27.20
2019-05-11T01:12:01.888Z,26.80
2019-05-11T01:13:01.881Z,28.00
2019-05-11T01:14:01.867Z,27.10
2019-05-11T01:15:01.858Z,28.20
2019-05-11T01:16:01.841Z,28.30
2019-05-11T01:17:01.831Z,28.60
2019-05-11T01:18:01.814Z,28.70
2019-05-11T01:19:01.803Z,28.90
2019-05-11T01:20:01.799Z,29.10
2019-05-11T01:21:01.779Z,30.10
2019-05-11T01:22:01.774Z,29.70
2019-05-11T01:23:01.783Z,30.00
2019-05-11T01:24:01.752Z,31.00
2019-05-11T01:25:01.828Z,30.60
2019-05-11T01:26:01.764Z,30.60
2019-05-11T01:27:01.717Z,30.20
2019-05-11T01:28:01.707Z,30.20
2019-05-11T01:29:01.695Z,30.30
2019-05-11T01:30:01.693Z,30.90
2019-05-11T01:31:01.676Z,30.60
2019-05-11T01:32:01.678Z,30.30
2019-05-11T01:33:01.646Z,30.40
2019-05-11T01:34:01.644Z,29.70
2019-05-11T01:35:01.670Z,30.30
2019-05-11T01:36:01.656Z,30.60
2019-05-11T01:37:01.601Z,29.90
2019-05-11T01:38:01.597Z,31.00
2019-05-11T01:39:01.581Z,29.80
2019-05-11T01:40:01.570Z,31.90
2019-05-11T01:41:01.564Z,30.40
2019-05-11T01:42:01.560Z,31.70
2019-05-11T01:43:01.575Z,32.20
2019-05-11T01:44:08.346Z,31.20
2019-05-11T01:45:01.514Z,31.50
2019-05-11T01:46:01.531Z,31.40
2019-05-11T01:47:01.603Z,31.90
2019-05-11T01:48:01.483Z,30.40
2019-05-11T01:49:01.478Z,30.20
2019-05-11T01:50:01.468Z,31.50
2019-05-11T01:51:01.446Z,31.60
2019-05-11T01:52:01.434Z,33.10
2019-05-11T01:53:01.449Z,31.10
2019-05-11T01:54:01.417Z,33.10
2019-05-11T01:55:01.401Z,32.90
2019-05-11T01:56:01.396Z,33.10
2019-05-11T01:57:01.414Z,32.80
2019-05-11T01:58:01.375Z,31.80
2019-05-11T01:59:01.366Z,31.40
2019-05-11T02:00:01.347Z,31.60
2019-05-11T02:01:01.341Z,30.90
2019-05-11T02:02:01.327Z,30.50
2019-05-11T02:03:01.332Z,31.50
2019-05-11T02:04:01.305Z,30.00
2019-05-11T02:05:01.302Z,31.00
2019-05-11T02:06:01.279Z,32.50
2019-05-11T02:07:01.272Z,33.40
2019-05-11T02:08:01.256Z,31.80
2019-05-11T02:09:01.305Z,33.40
2019-05-11T02:10:01.231Z,33.10
2019-05-11T02:11:14.965Z,33.90
2019-05-11T02:12:02.209Z,33.10
2019-05-11T02:13:01.213Z,31.90
2019-05-11T02:14:01.188Z,31.40
2019-05-11T02:15:01.212Z,32.10
2019-05-11T02:16:01.181Z,33.30
2019-05-11T02:17:01.175Z,32.40
2019-05-11T02:18:01.190Z,33.80
2019-05-11T02:19:01.155Z,32.70
2019-05-11T02:20:01.154Z,32.20
2019-05-11T02:21:01.126Z,32.20
2019-05-11T02:22:01.108Z,32.00
2019-05-11T02:23:01.097Z,32.10
2019-05-11T02:24:01.091Z,32.70
2019-05-11T02:25:01.068Z,32.40
2019-05-11T02:26:01.063Z,32.60
2019-05-11T02:27:01.044Z,33.10
2019-05-11T02:28:01.034Z,32.90
2019-05-11T02:29:01.021Z,32.60
2019-05-11T02:30:01.040Z,32.00
2019-05-11T02:31:00.994Z,32.60
2019-05-11T02:32:00.982Z,32.50
2019-05-11T02:33:00.970Z,32.90
2019-05-11T02:34:00.971Z,32.60
2019-05-11T02:35:00.985Z,32.60
2019-05-11T02:36:00.963Z,32.60
2019-05-11T02:37:00.925Z,32.30
2019-05-11T02:38:00.917Z,33.60
2019-05-11T02:39:00.912Z,34.10
2019-05-11T02:40:00.896Z,34.80
2019-05-11T02:41:00.918Z,34.60
2019-05-11T02:42:00.882Z,34.80
2019-05-11T02:43:00.859Z,36.90
2019-05-11T02:44:00.856Z,36.90
2019-05-11T02:45:00.839Z,35.10
2019-05-11T02:46:00.828Z,37.00
2019-05-11T02:47:00.827Z,36.00
2019-05-11T02:48:00.811Z,36.40
2019-05-11T02:49:00.792Z,34.50
2019-05-11T02:50:00.782Z,35.90
2019-05-11T02:51:00.781Z,38.60
2019-05-11T02:52:00.771Z,37.30
2019-05-11T02:53:00.744Z,34.00
2019-05-11T02:54:00.739Z,33.30
2019-05-11T02:55:00.721Z,32.80
2019-05-11T02:56:00.729Z,32.60
2019-05-11T02:57:00.725Z,32.00
2019-05-11T02:58:00.689Z,31.60
2019-05-11T02:59:00.695Z,33.60
2019-05-11T03:00:00.684Z,35.40
2019-05-11T03:01:00.675Z,33.70
2019-05-11T03:02:00.680Z,33.40
2019-05-11T03:03:00.782Z,34.10
2019-05-11T03:04:00.628Z,33.30
2019-05-11T03:05:00.617Z,32.10
2019-05-11T03:06:00.617Z,33.50
2019-05-11T03:07:00.606Z,32.90
2019-05-11T03:08:00.602Z,34.10
2019-05-11T03:09:00.575Z,33.50
2019-05-11T03:10:00.563Z,35.40
2019-05-11T03:11:00.564Z,35.80
2019-05-11T03:12:00.554Z,35.20
2019-05-11T03:13:00.558Z,35.50
2019-05-11T03:14:00.558Z,35.30
2019-05-11T03:15:00.507Z,37.00
2019-05-11T03:16:00.510Z,36.50
2019-05-11T03:17:00.489Z,37.00
2019-05-11T03:18:00.482Z,37.40
2019-05-11T03:19:00.483Z,36.30
2019-05-11T03:20:00.451Z,36.10
2019-05-11T03:21:00.446Z,37.20
2019-05-11T03:22:00.431Z,37.30
2019-05-11T03:23:00.423Z,35.00
2019-05-11T03:24:00.443Z,35.80
2019-05-11T03:25:00.424Z,36.30
2019-05-11T03:26:00.389Z,36.00
2019-05-11T03:27:00.376Z,36.70
2019-05-11T03:28:00.363Z,35.90
2019-05-11T03:29:00.366Z,36.30
2019-05-11T03:30:01.716Z,35.60
2019-05-11T03:31:00.347Z,35.80
2019-05-11T03:32:00.353Z,35.70
2019-05-11T03:33:00.333Z,35.50
2019-05-11T03:34:00.302Z,36.20
2019-05-11T03:35:00.355Z,35.40
2019-05-11T03:36:00.282Z,36.50
2019-05-11T03:37:00.271Z,36.40
2019-05-11T03:38:00.253Z,36.60
2019-05-11T03:39:00.247Z,36.40
2019-05-11T03:40:00.234Z,37.50
2019-05-11T03:41:00.229Z,37.60
2019-05-11T03:42:13.813Z,37.20
2019-05-11T03:43:01.202Z,37.90
2019-05-11T03:44:00.181Z,37.80
2019-05-11T03:45:00.178Z,36.80
2019-05-11T03:46:00.199Z,36.60
2019-05-11T03:47:00.179Z,37.40
2019-05-11T03:48:00.139Z,35.80
2019-05-11T03:49:00.138Z,35.30
2019-05-11T03:50:00.121Z,36.00
2019-05-11T03:51:00.104Z,33.90
2019-05-11T03:52:00.105Z,35.10
2019-05-11T03:53:00.082Z,34.90
2019-05-11T03:54:00.071Z,34.90
2019-05-11T03:55:00.065Z,34.80
2019-05-11T03:56:00.053Z,35.00
2019-05-11T03:57:00.059Z,34.30
2019-05-11T03:58:00.029Z,33.90
2019-05-11T03:59:00.019Z,35.10
2019-05-11T04:00:00.017Z,35.40
2019-05-11T04:01:00.003Z,32.90
2019-05-11T04:01:59.988Z,35.30
2019-05-11T04:02:59.979Z,35.40
2019-05-11T04:03:59.976Z,34.00
2019-05-11T04:04:59.953Z,35.90
2019-05-11T04:05:59.945Z,34.50
2019-05-11T04:06:59.934Z,35.00
2019-05-11T04:07:59.940Z,35.50
2019-05-11T04:08:59.924Z,34.70
2019-05-11T04:09:59.898Z,34.30
2019-05-11T04:10:59.885Z,34.80
2019-05-11T04:11:59.877Z,34.80
2019-05-11T04:12:59.875Z,33.90
2019-05-11T04:13:59.871Z,34.40
2019-05-11T04:14:59.858Z,33.70
2019-05-11T04:15:59.835Z,35.60
2019-05-11T04:16:59.815Z,35.10
2019-05-11T04:17:59.809Z,34.60
2019-05-11T04:18:59.826Z,35.00
2019-05-11T04:19:59.781Z,34.40
2019-05-11T04:20:59.776Z,34.90
2019-05-11T04:21:59.766Z,35.10
2019-05-11T04:22:59.751Z,35.00
2019-05-11T04:23:59.736Z,35.60
2019-05-11T04:24:59.742Z,35.50
2019-05-11T04:25:59.721Z,36.10
2019-05-11T04:26:59.702Z,36.20
2019-05-11T04:27:59.709Z,36.10
2019-05-11T04:28:59.690Z,36.00
2019-05-11T04:29:59.677Z,35.50
2019-05-11T04:30:59.674Z,35.50
2019-05-11T04:31:59.658Z,35.30
2019-05-11T04:32:59.644Z,34.50
2019-05-11T04:33:59.626Z,32.80
2019-05-11T04:34:59.621Z,32.40
2019-05-11T04:35:59.650Z,32.40
2019-05-11T04:36:59.593Z,32.40
2019-05-11T04:37:59.597Z,33.40
2019-05-11T04:38:59.576Z,32.80
2019-05-11T04:39:59.562Z,32.40
2019-05-11T04:40:59.555Z,32.80
2019-05-11T04:41:59.556Z,32.80
2019-05-11T04:42:59.555Z,32.60
2019-05-11T04:43:59.529Z,32.10
2019-05-11T04:44:59.505Z,32.40
2019-05-11T04:45:59.491Z,31.40
2019-05-11T04:46:59.511Z,30.80
2019-05-11T04:47:59.480Z,31.60
2019-05-11T04:48:59.467Z,31.10
2019-05-11T04:49:59.451Z,30.30
2019-05-11T04:50:59.444Z,29.00
2019-05-11T04:51:59.434Z,29.20
2019-05-11T04:52:59.434Z,29.80
2019-05-11T04:53:59.408Z,29.40
2019-05-11T04:54:59.409Z,29.30
2019-05-11T04:55:59.390Z,29.70
2019-05-11T04:56:59.394Z,29.40
2019-05-11T04:57:59.367Z,28.30
2019-05-11T04:58:59.371Z,28.50
2019-05-11T04:59:59.349Z,28.50
2019-05-11T05:00:59.336Z,29.20
2019-05-11T05:01:59.340Z,27.10
2019-05-11T05:02:59.321Z,26.70
2019-05-11T05:04:13.521Z,27.30
2019-05-11T05:05:00.291Z,26.70
2019-05-11T05:06:20.853Z,26.80
2019-05-11T05:07:05.132Z,25.50
2019-05-11T05:08:09.025Z,26.30
2019-05-11T05:09:03.807Z,25.60
2019-05-11T05:09:59.229Z,25.50
2019-05-11T05:11:00.784Z,25.30
2019-05-11T05:11:59.212Z,25.50
2019-05-11T05:13:10.311Z,25.40
2019-05-11T05:14:01.872Z,25.60
2019-05-11T05:15:00.175Z,25.40
2019-05-11T05:15:59.175Z,25.10
2019-05-11T05:16:59.151Z,24.50
2019-05-11T05:17:59.140Z,24.10
2019-05-11T05:18:59.137Z,24.70
2019-05-11T05:19:59.122Z,24.30
2019-05-11T05:20:59.110Z,23.90
2019-05-11T05:21:59.097Z,23.70
2019-05-11T05:22:59.086Z,23.90
2019-05-11T05:23:59.110Z,23.70
2019-05-11T05:24:59.068Z,23.70
2019-05-11T05:25:59.055Z,23.60
2019-05-11T05:26:59.045Z,23.50
2019-05-11T05:27:59.085Z,23.60
2019-05-11T05:28:59.051Z,23.40
2019-05-11T05:29:59.012Z,23.30
2019-05-11T05:30:58.991Z,23.10
2019-05-11T05:31:58.992Z,23.40
2019-05-11T05:32:58.974Z,23.40
2019-05-11T05:34:01.380Z,23.00
2019-05-11T05:34:58.984Z,23.20
2019-05-11T05:35:58.939Z,23.60
2019-05-11T05:36:58.970Z,22.60
2019-05-11T05:37:58.929Z,23.30
2019-05-11T05:38:58.958Z,22.70
2019-05-11T05:39:58.901Z,22.40
2019-05-11T05:40:58.894Z,22.20
2019-05-11T05:41:58.870Z,22.30
2019-05-11T05:42:58.857Z,22.10
2019-05-11T05:43:58.868Z,22.00
2019-05-11T05:44:58.843Z,21.70
2019-05-11T05:45:58.827Z,21.90
2019-05-11T05:46:58.817Z,21.70
2019-05-11T05:47:58.815Z,22.00
2019-05-11T05:48:58.800Z,21.90
2019-05-11T05:49:58.797Z,21.80
2019-05-11T05:50:58.771Z,21.50
2019-05-11T05:51:58.847Z,22.00
2019-05-11T05:52:58.749Z,22.10
2019-05-11T05:53:58.746Z,21.50
2019-05-11T05:54:58.739Z,22.00
2019-05-11T05:55:58.714Z,21.80
2019-05-11T05:56:58.743Z,22.10
2019-05-11T05:57:58.743Z,21.30
2019-05-11T05:58:58.686Z,22.10
2019-05-11T05:59:58.681Z,21.90
2019-05-11T06:00:58.661Z,21.40
2019-05-11T06:01:58.658Z,22.00
2019-05-11T06:02:58.647Z,21.70
2019-05-11T06:03:58.630Z,21.70
2019-05-11T06:04:58.631Z,21.80
2019-05-11T06:05:58.616Z,21.70
2019-05-11T06:06:58.619Z,21.50
2019-05-11T06:07:58.589Z,21.40
2019-05-11T06:08:58.613Z,21.70
2019-05-11T06:09:58.563Z,21.40
2019-05-11T06:10:58.608Z,21.60
2019-05-11T06:11:58.543Z,21.00
2019-05-11T06:12:58.523Z,22.60
2019-05-11T06:13:58.512Z,21.60
2019-05-11T06:14:58.503Z,21.60
2019-05-11T06:15:58.541Z,21.90
2019-05-11T06:16:58.514Z,21.70
2019-05-11T06:18:00.608Z,21.70
2019-05-11T06:18:58.514Z,22.00
2019-05-11T06:19:58.479Z,21.50
2019-05-11T06:20:58.433Z,21.90
2019-05-11T06:21:58.429Z,21.80
2019-05-11T06:22:58.434Z,21.70
2019-05-11T06:24:05.458Z,21.50
2019-05-11T06:24:59.389Z,21.90
2019-05-11T06:25:58.384Z,21.00
2019-05-11T06:26:58.378Z,21.50
2019-05-11T06:27:58.385Z,21.40
2019-05-11T06:28:58.357Z,21.70
2019-05-11T06:29:58.335Z,21.20
2019-05-11T06:30:58.330Z,21.30
2019-05-11T06:31:58.322Z,21.80
2019-05-11T06:32:58.342Z,21.50
2019-05-11T06:33:58.292Z,21.90
2019-05-11T06:34:58.284Z,21.50
2019-05-11T06:35:58.291Z,21.10
2019-05-11T06:36:58.260Z,21.30
2019-05-11T06:37:58.253Z,21.40
2019-05-11T06:38:58.238Z,21.60
2019-05-11T06:39:58.273Z,21.00
2019-05-11T06:40:58.229Z,21.00
2019-05-11T06:41:58.223Z,20.50
2019-05-11T06:42:58.195Z,20.90
2019-05-11T06:44:01.631Z,20.50
2019-05-11T06:44:58.166Z,20.50
2019-05-11T06:45:58.156Z,20.60
2019-05-11T06:46:58.180Z,20.30
2019-05-11T06:47:58.137Z,20.70
2019-05-11T06:48:58.131Z,20.90
2019-05-11T06:49:58.110Z,20.60
2019-05-11T06:50:58.110Z,20.00
2019-05-11T06:51:58.344Z,19.70
2019-05-11T06:52:58.087Z,20.20
2019-05-11T06:53:58.109Z,19.80
2019-05-11T06:54:58.057Z,20.00
2019-05-11T06:55:58.045Z,19.70
2019-05-11T06:56:58.034Z,19.60
2019-05-11T06:57:58.026Z,19.00
2019-05-11T06:58:58.029Z,19.30
2019-05-11T06:59:58.025Z,19.20
2019-05-11T07:00:58.034Z,19.30
2019-05-11T07:01:57.988Z,18.90
2019-05-11T07:02:57.964Z,19.00
2019-05-11T07:03:57.961Z,19.00
2019-05-11T07:04:57.967Z,19.10
2019-05-11T07:05:57.941Z,18.50
2019-05-11T07:06:57.929Z,19.20
2019-05-11T07:07:57.919Z,18.70
2019-05-11T07:08:57.914Z,18.10
2019-05-11T07:09:57.924Z,18.90
2019-05-11T07:10:57.884Z,18.50
2019-05-11T07:11:57.904Z,18.90
2019-05-11T07:12:57.861Z,18.20
2019-05-11T07:13:57.850Z,18.70
2019-05-11T07:14:57.842Z,18.70
2019-05-11T07:15:57.826Z,18.60
2019-05-11T07:16:57.824Z,18.40
2019-05-11T07:17:57.801Z,18.60
2019-05-11T07:18:57.789Z,18.80
2019-05-11T07:19:57.790Z,18.60
2019-05-11T07:20:57.766Z,18.40
2019-05-11T07:21:57.756Z,18.60
2019-05-11T07:22:57.761Z,18.60
2019-05-11T07:23:57.760Z,18.70
2019-05-11T07:24:57.774Z,18.90
2019-05-11T07:26:00.186Z,18.20
2019-05-11T07:26:57.735Z,18.80
2019-05-11T07:27:57.692Z,18.80
2019-05-11T07:28:57.684Z,19.00
2019-05-11T07:29:57.667Z,18.70
2019-05-11T07:30:57.666Z,18.60
2019-05-11T07:32:04.947Z,19.00
2019-05-11T07:33:01.056Z,18.30
2019-05-11T07:33:58.749Z,19.00
2019-05-11T07:34:57.818Z,19.10
2019-05-11T07:35:58.301Z,18.60
2019-05-11T07:36:57.750Z,19.60
2019-05-11T07:37:58.174Z,19.10
2019-05-11T07:38:58.144Z,19.00
2019-05-11T07:39:58.156Z,18.80
2019-05-11T07:40:58.223Z,18.80
2019-05-11T07:41:58.439Z,19.00
2019-05-11T07:42:58.973Z,18.60
2019-05-11T07:43:59.054Z,19.10
2019-05-11T07:44:58.257Z,19.10
2019-05-11T07:45:58.457Z,19.10
2019-05-11T07:46:58.655Z,19.10
2019-05-11T07:47:58.929Z,19.10
2019-05-11T07:48:58.506Z,19.00
2019-05-11T07:49:58.045Z,19.40
2019-05-11T07:50:58.449Z,18.70
2019-05-11T07:51:58.650Z,19.20
2019-05-11T07:52:58.842Z,19.00
2019-05-11T07:53:57.925Z,18.90
2019-05-11T07:54:58.052Z,18.50
2019-05-11T07:55:57.860Z,19.20
2019-05-11T07:56:58.408Z,19.20
2019-05-11T07:57:58.613Z,18.60
2019-05-11T07:58:58.029Z,18.60
2019-05-11T07:59:57.939Z,19.00
2019-05-11T08:00:58.216Z,18.90
2019-05-11T08:01:58.275Z,18.40
2019-05-11T08:02:58.535Z,19.20
2019-05-11T08:03:58.558Z,18.80
2019-05-11T08:04:58.698Z,18.70
2019-05-11T08:05:58.274Z,18.60
2019-05-11T08:06:58.427Z,18.10
2019-05-11T08:07:59.323Z,18.70
2019-05-11T08:08:58.850Z,18.20
2019-05-11T08:09:58.678Z,18.10
2019-05-11T08:10:58.678Z,18.60
2019-05-11T08:11:58.417Z,18.70
2019-05-11T08:12:58.762Z,18.70
2019-05-11T08:13:58.444Z,18.40
2019-05-11T08:15:05.944Z,18.50
2019-05-11T08:15:58.194Z,18.70
2019-05-11T08:16:59.483Z,18.50
2019-05-11T08:17:57.845Z,18.70
2019-05-11T08:18:58.825Z,18.60
2019-05-11T08:19:58.040Z,18.10
2019-05-11T08:20:58.287Z,18.50
2019-05-11T08:21:58.270Z,18.30
2019-05-11T08:22:58.699Z,18.10
2019-05-11T08:23:58.798Z,18.20
2019-05-11T08:24:58.586Z,17.90
2019-05-11T08:25:58.066Z,18.10
2019-05-11T08:26:58.248Z,18.10
2019-05-11T08:27:58.851Z,18.40
2019-05-11T08:28:57.865Z,18.30
2019-05-11T08:29:57.965Z,18.00
2019-05-11T08:30:57.898Z,18.20
2019-05-11T08:31:57.978Z,18.10
2019-05-11T08:32:58.206Z,18.00
2019-05-11T08:33:58.340Z,18.30
2019-05-11T08:34:58.056Z,18.10
2019-05-11T08:35:58.301Z,18.30
2019-05-11T08:36:58.413Z,18.40
2019-05-11T08:37:58.375Z,18.20
2019-05-11T08:38:58.520Z,17.90
2019-05-11T08:39:58.504Z,17.60
2019-05-11T08:40:59.007Z,17.70
2019-05-11T08:41:58.969Z,18.20
2019-05-11T08:42:58.290Z,17.80
2019-05-11T08:43:58.689Z,18.00
2019-05-11T08:45:14.678Z,18.00
2019-05-11T08:45:58.042Z,18.60
2019-05-11T08:46:58.255Z,18.00
2019-05-11T08:47:57.947Z,18.80
2019-05-11T08:48:59.354Z,18.60
2019-05-11T08:49:58.844Z,18.50
2019-05-11T08:50:58.158Z,18.10
2019-05-11T08:51:57.835Z,18.60
2019-05-11T08:52:58.056Z,18.10
2019-05-11T08:53:58.317Z,19.10
2019-05-11T08:54:57.774Z,18.40
2019-05-11T08:55:58.833Z,18.50
2019-05-11T08:56:58.742Z,19.00
2019-05-11T08:57:58.542Z,18.50
2019-05-11T08:58:58.813Z,18.40
2019-05-11T08:59:57.869Z,18.30
2019-05-11T09:00:58.263Z,17.70
2019-05-11T09:01:58.744Z,18.20
2019-05-11T09:02:58.251Z,18.20
2019-05-11T09:03:58.353Z,17.80
2019-05-11T09:04:58.852Z,17.80
2019-05-11T09:05:57.893Z,17.90
2019-05-11T09:06:58.706Z,18.10
2019-05-11T09:07:57.805Z,18.10
2019-05-11T09:08:58.343Z,17.90
2019-05-11T09:09:58.550Z,18.10
2019-05-11T09:10:58.253Z,18.30
2019-05-11T09:11:58.874Z,18.30
2019-05-11T09:12:58.860Z,18.20
2019-05-11T09:13:57.832Z,18.30
2019-05-11T09:14:58.128Z,18.60
2019-05-11T09:15:58.673Z,18.30
2019-05-11T09:16:57.787Z,18.80
2019-05-11T09:17:57.789Z,18.50
2019-05-11T09:18:58.131Z,18.70
2019-05-11T09:19:58.146Z,18.10
2019-05-11T09:20:57.713Z,18.40
2019-05-11T09:21:58.600Z,18.30
2019-05-11T09:22:58.714Z,18.20
2019-05-11T09:23:57.905Z,18.20
2019-05-11T09:24:58.250Z,18.00
2019-05-11T09:25:58.399Z,18.20
2019-05-11T09:26:58.391Z,18.80
2019-05-11T09:27:58.515Z,18.90
2019-05-11T09:28:58.264Z,18.50
2019-05-11T09:29:58.153Z,18.60
2019-05-11T09:30:57.793Z,18.10
2019-05-11T09:31:58.246Z,18.30
2019-05-11T09:32:58.108Z,18.00
2019-05-11T09:33:58.429Z,17.20
2019-05-11T09:34:57.982Z,17.70
2019-05-11T09:35:58.339Z,18.20
2019-05-11T09:36:58.414Z,18.50
2019-05-11T09:37:58.607Z,18.10
2019-05-11T09:38:58.099Z,18.30
2019-05-11T09:39:58.293Z,18.30
2019-05-11T09:40:58.416Z,18.00
2019-05-11T09:41:58.116Z,18.50
2019-05-11T09:42:58.330Z,18.40
2019-05-11T09:43:58.513Z,17.60
2019-05-11T09:44:57.776Z,17.90
2019-05-11T09:45:58.213Z,18.40
2019-05-11T09:47:00.029Z,18.60
2019-05-11T09:47:58.176Z,18.20
2019-05-11T09:48:56.137Z,18.10
2019-05-11T09:49:58.253Z,18.50
2019-05-11T09:50:58.575Z,18.20
2019-05-11T09:51:56.151Z,18.30
2019-05-11T09:52:58.118Z,18.60
2019-05-11T09:53:58.605Z,18.40
2019-05-11T09:54:57.985Z,18.50
2019-05-11T09:55:58.517Z,18.70
2019-05-11T09:56:57.829Z,18.40
2019-05-11T09:57:57.992Z,18.30
2019-05-11T09:58:58.020Z,18.00
2019-05-11T09:59:58.186Z,18.20
2019-05-11T10:00:58.440Z,18.30
2019-05-11T10:01:55.983Z,18.50
2019-05-11T10:02:57.713Z,18.80
2019-05-11T10:03:57.891Z,18.40
2019-05-11T10:04:57.822Z,18.40
2019-05-11T10:05:57.987Z,18.70
2019-05-11T10:06:58.373Z,18.60
2019-05-11T10:07:55.955Z,18.90
2019-05-11T10:08:57.888Z,18.80
2019-05-11T10:09:57.910Z,18.80
2019-05-11T10:10:57.929Z,18.40
2019-05-11T10:11:58.277Z,18.00
2019-05-11T10:12:55.863Z,19.20
2019-05-11T10:13:57.778Z,18.80
2019-05-11T10:14:55.835Z,18.90
2019-05-11T10:16:04.689Z,18.80
2019-05-11T10:16:58.455Z,19.00
2019-05-11T10:17:55.809Z,18.90
2019-05-11T10:18:55.793Z,19.00
2019-05-11T10:19:58.042Z,19.20
2019-05-11T10:20:55.773Z,18.90
2019-05-11T10:21:57.861Z,19.40
2019-05-11T10:22:57.925Z,18.90
2019-05-11T10:23:57.831Z,18.70
2019-05-11T10:24:58.055Z,18.60
2019-05-11T10:25:55.719Z,18.60
2019-05-11T10:26:57.845Z,18.60
2019-05-11T10:27:57.843Z,18.20
2019-05-11T10:28:55.696Z,18.70
2019-05-11T10:29:55.696Z,18.50
2019-05-11T10:30:57.697Z,18.70
2019-05-11T10:31:55.645Z,18.30
2019-05-11T10:32:57.765Z,18.40
2019-05-11T10:33:57.917Z,18.60
2019-05-11T10:34:55.622Z,18.10
2019-05-11T10:35:55.627Z,18.40
2019-05-11T10:36:57.770Z,19.00
2019-05-11T10:37:55.588Z,18.20
2019-05-11T10:38:55.575Z,18.50
2019-05-11T10:39:57.651Z,18.10
2019-05-11T10:40:57.990Z,18.40
2019-05-11T10:41:55.540Z,18.30
2019-05-11T10:42:55.543Z,18.20
2019-05-11T10:43:57.779Z,18.30
2019-05-11T10:44:55.502Z,18.30
2019-05-11T10:45:55.521Z,18.00
2019-05-11T10:46:55.486Z,18.10
2019-05-11T10:47:58.618Z,18.30
2019-05-11T10:48:58.767Z,18.60
2019-05-11T10:49:57.712Z,18.60
2019-05-11T10:50:57.508Z,18.40
2019-05-11T10:51:55.428Z,18.40
2019-05-11T10:52:55.415Z,18.40
2019-05-11T10:53:57.596Z,18.70
2019-05-11T10:54:55.405Z,18.60
2019-05-11T10:55:55.431Z,18.80
2019-05-11T10:56:57.732Z,19.00
2019-05-11T10:57:55.362Z,18.60
2019-05-11T10:58:55.375Z,18.90
2019-05-11T10:59:57.806Z,18.50
2019-05-11T11:00:55.331Z,18.90
2019-05-11T11:01:55.317Z,18.50
2019-05-11T11:02:55.310Z,18.80
2019-05-11T11:03:55.290Z,18.40
2019-05-11T11:04:55.280Z,18.90
2019-05-11T11:05:55.270Z,18.20
2019-05-11T11:06:55.295Z,18.00
2019-05-11T11:07:55.257Z,18.40
2019-05-11T11:08:55.283Z,18.10
2019-05-11T11:09:55.237Z,18.60
2019-05-11T11:10:55.217Z,18.40
2019-05-11T11:11:55.224Z,18.40
2019-05-11T11:12:55.195Z,18.30
2019-05-11T11:13:55.203Z,18.70
2019-05-11T11:14:55.176Z,18.50
2019-05-11T11:15:55.161Z,18.30
2019-05-11T11:16:55.147Z,18.30
2019-05-11T11:17:55.137Z,18.30
2019-05-11T11:18:55.146Z,18.30
2019-05-11T11:19:55.116Z,18.60
2019-05-11T11:20:55.105Z,18.50
2019-05-11T11:21:55.096Z,18.80
2019-05-11T11:22:55.084Z,18.10
2019-05-11T11:23:55.077Z,18.50
2019-05-11T11:24:55.068Z,18.90
2019-05-11T11:25:55.043Z,18.50
2019-05-11T11:26:55.032Z,19.20
2019-05-11T11:27:55.031Z,18.80
2019-05-11T11:28:55.010Z,18.90
2019-05-11T11:29:55.010Z,18.60
2019-05-11T11:30:54.990Z,18.60
2019-05-11T11:31:54.982Z,19.10
2019-05-11T11:32:54.971Z,18.20
2019-05-11T11:33:57.811Z,18.90
2019-05-11T11:34:54.976Z,18.50
2019-05-11T11:35:54.941Z,18.70
2019-05-11T11:36:54.933Z,18.50
2019-05-11T11:37:54.914Z,18.90
2019-05-11T11:38:54.907Z,19.00
2019-05-11T11:39:54.905Z,18.70
2019-05-11T11:40:54.894Z,18.80
2019-05-11T11:41:54.874Z,18.90
2019-05-11T11:42:54.863Z,18.80
2019-05-11T11:43:54.843Z,19.20
2019-05-11T11:44:54.862Z,19.70
2019-05-11T11:45:54.836Z,19.90
2019-05-11T11:46:55.490Z,19.10
2019-05-11T11:47:54.812Z,20.00
2019-05-11T11:48:54.793Z,19.50
2019-05-11T11:49:54.782Z,19.10
2019-05-11T11:50:54.779Z,19.50
2019-05-11T11:51:54.768Z,19.30
2019-05-11T11:52:54.748Z,19.00
2019-05-11T11:53:54.749Z,19.10
2019-05-11T11:54:54.727Z,19.50
2019-05-11T11:55:54.715Z,19.60
2019-05-11T11:56:54.716Z,19.60
2019-05-11T11:57:54.696Z,19.70
2019-05-11T11:58:54.676Z,19.10
2019-05-11T11:59:54.670Z,19.70
2019-05-11T12:00:54.653Z,19.60
2019-05-11T12:01:54.669Z,19.80
2019-05-11T12:02:54.636Z,20.90
2019-05-11T12:03:54.630Z,20.50
2019-05-11T12:04:54.609Z,20.80
2019-05-11T12:05:54.605Z,20.90
2019-05-11T12:06:54.591Z,20.00
2019-05-11T12:07:54.640Z,19.50
2019-05-11T12:08:54.570Z,19.70
2019-05-11T12:09:54.556Z,20.10
2019-05-11T12:10:54.555Z,19.50
2019-05-11T12:11:54.537Z,19.30
2019-05-11T12:12:54.521Z,19.40
2019-05-11T12:13:54.522Z,19.50
2019-05-11T12:14:54.499Z,20.10
2019-05-11T12:15:54.493Z,19.60
2019-05-11T12:17:04.926Z,19.90
2019-05-11T12:17:55.464Z,19.00
2019-05-11T12:18:54.470Z,19.40
2019-05-11T12:19:54.462Z,19.60
2019-05-11T12:20:54.455Z,19.10
2019-05-11T12:21:54.431Z,19.60
2019-05-11T12:22:54.419Z,19.60
2019-05-11T12:23:54.406Z,20.00
2019-05-11T12:24:54.396Z,19.30
2019-05-11T12:25:54.384Z,19.80
2019-05-11T12:26:54.376Z,19.10
2019-05-11T12:27:54.383Z,19.50
2019-05-11T12:28:54.347Z,19.80
2019-05-11T12:29:54.333Z,19.80
2019-05-11T12:30:54.327Z,19.80
2019-05-11T12:31:54.318Z,19.80
2019-05-11T12:32:54.299Z,20.00
2019-05-11T12:33:54.308Z,19.50
2019-05-11T12:34:54.277Z,20.10
2019-05-11T12:35:54.269Z,19.60
2019-05-11T12:36:54.256Z,20.20
2019-05-11T12:37:54.245Z,20.80
2019-05-11T12:38:54.247Z,21.50
2019-05-11T12:39:54.226Z,20.20
2019-05-11T12:40:54.215Z,20.60
2019-05-11T12:41:54.203Z,21.00
2019-05-11T12:42:54.190Z,20.60
2019-05-11T12:43:54.240Z,20.70
2019-05-11T12:44:54.176Z,20.80
2019-05-11T12:45:54.161Z,20.30
2019-05-11T12:46:54.166Z,20.90
2019-05-11T12:47:54.141Z,20.70
2019-05-11T12:48:56.619Z,20.20
2019-05-11T12:49:54.126Z,20.60
2019-05-11T12:50:54.100Z,22.70
2019-05-11T12:51:54.089Z,21.90